Terminal Aerodrome Forecast
Issued by NWS Twin Cities, MN

Home | Current Version | Previous Version | Graphics & Text | Print | Product List | Glossary On
Versions: 1 2 3 4 5 6 7 8 9 10 11 12
000
FTUS43 KMPX 042339
TAFSTC
TAF
KSTC 042339Z 0500/0524 36010KT P6SM SKC
     FM050400 02002KT P6SM SCT100
     FM051400 20005KT P6SM FEW250
     FM051900 21010G15KT P6SM FEW250=

USA.gov is the U.S. government's official web portal to all federal, state and local government web resources and services.